createdAt,value
2024-03-03T00:01:23.810Z,100.00
2024-03-03T00:03:51.473Z,100.00
2024-03-03T00:06:19.089Z,100.00
2024-03-03T00:08:46.594Z,100.00
2024-03-03T00:11:14.266Z,100.00
2024-03-03T00:13:42.063Z,100.00
2024-03-03T00:16:09.742Z,100.00
2024-03-03T00:18:40.167Z,100.00
2024-03-03T00:21:17.050Z,100.00
2024-03-03T00:23:44.776Z,100.00
2024-03-03T00:26:12.296Z,100.00
2024-03-03T00:28:39.804Z,100.00
2024-03-03T00:31:07.225Z,100.00
2024-03-03T00:33:34.852Z,100.00
2024-03-03T00:36:06.809Z,100.00
2024-03-03T00:38:35.861Z,100.00
2024-03-03T00:41:06.051Z,100.00
2024-03-03T00:43:33.744Z,100.00
2024-03-03T00:46:01.429Z,100.00
2024-03-03T00:48:29.328Z,100.00
2024-03-03T00:50:56.914Z,100.00
2024-03-03T00:53:24.531Z,100.00
2024-03-03T00:55:53.177Z,100.00
2024-03-03T00:58:22.075Z,100.00
2024-03-03T01:00:49.743Z,100.00
2024-03-03T01:03:17.418Z,100.00
2024-03-03T01:05:45.578Z,100.00
2024-03-03T01:08:13.216Z,100.00
2024-03-03T01:10:41.727Z,100.00
2024-03-03T01:13:09.297Z,100.00
2024-03-03T01:15:36.950Z,100.00
2024-03-03T01:18:05.267Z,100.00
2024-03-03T01:20:32.874Z,100.00
2024-03-03T01:23:00.499Z,100.00
2024-03-03T01:25:30.279Z,100.00
2024-03-03T01:27:57.965Z,100.00
2024-03-03T01:30:25.953Z,100.00
2024-03-03T01:32:53.496Z,100.00
2024-03-03T01:35:20.832Z,100.00
2024-03-03T01:37:48.275Z,100.00
2024-03-03T01:40:15.753Z,100.00
2024-03-03T01:42:43.395Z,100.00
2024-03-03T01:45:23.990Z,100.00
2024-03-03T01:47:53.367Z,100.00
2024-03-03T01:50:21.933Z,100.00
2024-03-03T01:52:52.044Z,100.00
2024-03-03T01:55:22.924Z,100.00
2024-03-03T01:57:54.377Z,100.00
2024-03-03T02:00:22.876Z,100.00
2024-03-03T02:02:51.023Z,100.00
2024-03-03T02:05:20.014Z,100.00
2024-03-03T02:07:48.107Z,100.00
2024-03-03T02:10:17.228Z,100.00
2024-03-03T02:12:48.056Z,100.00
2024-03-03T02:15:18.378Z,100.00
2024-03-03T02:17:46.037Z,100.00
2024-03-03T02:20:13.633Z,100.00
2024-03-03T02:22:41.162Z,100.00
2024-03-03T02:25:09.607Z,100.00
2024-03-03T02:27:38.357Z,100.00
2024-03-03T02:30:06.548Z,100.00
2024-03-03T02:32:34.281Z,100.00
2024-03-03T02:35:01.865Z,100.00
2024-03-03T02:37:29.570Z,100.00
2024-03-03T02:39:57.271Z,100.00
2024-03-03T02:42:24.823Z,100.00
2024-03-03T02:44:52.392Z,100.00
2024-03-03T02:47:19.863Z,100.00
2024-03-03T02:49:47.316Z,100.00
2024-03-03T02:52:14.827Z,100.00
2024-03-03T02:54:42.668Z,100.00
2024-03-03T02:57:10.264Z,100.00
2024-03-03T02:59:37.838Z,100.00
2024-03-03T03:02:05.910Z,100.00
2024-03-03T03:04:33.625Z,100.00
2024-03-03T03:07:01.179Z,100.00
2024-03-03T03:09:28.771Z,100.00
2024-03-03T03:11:56.246Z,100.00
2024-03-03T03:14:25.465Z,100.00
2024-03-03T03:16:53.048Z,100.00
2024-03-03T03:19:20.986Z,100.00
2024-03-03T03:21:49.052Z,100.00
2024-03-03T03:24:16.544Z,100.00
2024-03-03T03:26:43.945Z,100.00
2024-03-03T03:29:11.302Z,100.00
2024-03-03T03:31:38.649Z,100.00
2024-03-03T03:34:06.302Z,100.00
2024-03-03T03:36:33.862Z,100.00
2024-03-03T03:39:02.709Z,100.00
2024-03-03T03:41:30.476Z,100.00
2024-03-03T03:43:57.994Z,100.00
2024-03-03T03:46:25.583Z,100.00
2024-03-03T03:48:53.616Z,100.00
2024-03-03T03:51:21.124Z,100.00
2024-03-03T03:53:48.448Z,100.00
2024-03-03T03:56:15.860Z,100.00
2024-03-03T03:58:43.543Z,100.00
2024-03-03T04:01:23.819Z,100.00
2024-03-03T04:03:51.400Z,100.00
2024-03-03T04:06:18.726Z,100.00
2024-03-03T04:08:46.241Z,100.00
2024-03-03T04:11:13.772Z,100.00
2024-03-03T04:13:41.401Z,100.00
2024-03-03T04:16:09.109Z,100.00
2024-03-03T04:18:37.354Z,100.00
2024-03-03T04:21:05.272Z,100.00
2024-03-03T04:23:33.465Z,100.00
2024-03-03T04:26:06.502Z,100.00
2024-03-03T04:28:35.705Z,100.00
2024-03-03T04:31:09.521Z,100.00
2024-03-03T04:33:37.681Z,100.00
2024-03-03T04:36:12.968Z,100.00
2024-03-03T04:38:43.607Z,100.00
2024-03-03T04:41:19.098Z,100.00
2024-03-03T04:43:47.444Z,100.00
2024-03-03T04:46:15.233Z,100.00
2024-03-03T04:48:43.121Z,100.00
2024-03-03T04:51:10.663Z,100.00
2024-03-03T04:53:38.244Z,100.00
2024-03-03T04:56:05.754Z,100.00
2024-03-03T04:58:33.533Z,100.00
2024-03-03T05:01:01.079Z,100.00
2024-03-03T05:03:28.672Z,100.00
2024-03-03T05:05:55.932Z,100.00
2024-03-03T05:08:23.265Z,100.00
2024-03-03T05:10:52.191Z,100.00
2024-03-03T05:13:19.939Z,100.00
2024-03-03T05:15:47.601Z,100.00
2024-03-03T05:18:16.144Z,100.00
2024-03-03T05:20:43.653Z,100.00
2024-03-03T05:23:11.186Z,100.00
2024-03-03T05:25:38.509Z,100.00
2024-03-03T05:28:06.261Z,100.00
2024-03-03T05:30:38.220Z,100.00
2024-03-03T05:33:08.019Z,100.00
2024-03-03T05:35:38.012Z,100.00
2024-03-03T05:38:05.902Z,100.00
2024-03-03T05:40:33.477Z,100.00
2024-03-03T05:43:01.574Z,100.00
2024-03-03T05:45:29.245Z,100.00
2024-03-03T05:47:57.003Z,100.00
2024-03-03T05:50:24.539Z,100.00
2024-03-03T05:52:51.960Z,100.00
2024-03-03T05:55:19.432Z,100.00
2024-03-03T05:57:48.295Z,100.00
2024-03-03T06:00:17.305Z,100.00
2024-03-03T06:02:45.042Z,100.00
2024-03-03T06:05:12.585Z,100.00
2024-03-03T06:07:40.152Z,100.00
2024-03-03T06:10:08.854Z,100.00
2024-03-03T06:12:36.473Z,100.00
2024-03-03T06:15:04.084Z,100.00
2024-03-03T06:17:31.616Z,100.00
2024-03-03T06:19:59.124Z,100.00
2024-03-03T06:22:26.569Z,100.00
2024-03-03T06:24:54.045Z,100.00
2024-03-03T06:27:21.545Z,100.00
2024-03-03T06:29:49.112Z,100.00
2024-03-03T06:32:16.529Z,100.00
2024-03-03T06:34:48.414Z,100.00
2024-03-03T06:37:16.820Z,100.00
2024-03-03T06:39:45.686Z,100.00
2024-03-03T06:42:13.302Z,100.00
2024-03-03T06:44:41.306Z,100.00
2024-03-03T06:47:09.058Z,100.00
2024-03-03T06:49:36.637Z,100.00
2024-03-03T06:52:04.741Z,100.00
2024-03-03T06:54:32.190Z,100.00
2024-03-03T06:56:59.589Z,100.00
2024-03-03T06:59:28.559Z,100.00
2024-03-03T07:01:56.242Z,100.00
2024-03-03T07:04:26.991Z,100.00
2024-03-03T07:06:55.891Z,100.00
2024-03-03T07:09:24.575Z,100.00
2024-03-03T07:11:56.235Z,100.00
2024-03-03T07:14:25.088Z,100.00
2024-03-03T07:16:52.931Z,100.00
2024-03-03T07:19:20.581Z,100.00
2024-03-03T07:21:48.129Z,100.00
2024-03-03T07:24:16.323Z,100.00
2024-03-03T07:26:43.869Z,100.00
2024-03-03T07:29:11.584Z,100.00
2024-03-03T07:31:39.049Z,100.00
2024-03-03T07:34:06.659Z,100.00
2024-03-03T07:36:34.296Z,100.00
2024-03-03T07:39:03.258Z,100.00
2024-03-03T07:41:30.744Z,95.20
2024-03-03T07:43:58.248Z,89.39
2024-03-03T07:46:25.759Z,81.67
2024-03-03T07:48:53.515Z,76.39
2024-03-03T07:51:23.233Z,71.57
2024-03-03T07:53:50.958Z,68.09
2024-03-03T07:56:18.524Z,65.25
2024-03-03T07:58:46.074Z,62.80
2024-03-03T08:01:13.785Z,60.92
2024-03-03T08:03:41.479Z,58.92
2024-03-03T08:06:12.192Z,56.89
2024-03-03T08:08:39.677Z,55.35
2024-03-03T08:11:07.138Z,55.14
2024-03-03T08:13:34.718Z,53.82
2024-03-03T08:16:02.194Z,52.84
2024-03-03T08:18:29.920Z,51.76
2024-03-03T08:21:04.504Z,51.10
2024-03-03T08:23:35.418Z,50.53
2024-03-03T08:26:02.940Z,51.02
2024-03-03T08:28:30.554Z,51.42
2024-03-03T08:30:58.004Z,50.48
2024-03-03T08:33:25.551Z,50.69
2024-03-03T08:35:53.039Z,50.22
2024-03-03T08:38:20.656Z,49.29
2024-03-03T08:40:48.130Z,48.92
2024-03-03T08:43:15.732Z,48.75
2024-03-03T08:45:43.493Z,48.59
2024-03-03T08:48:11.080Z,48.21
2024-03-03T08:50:38.705Z,48.10
2024-03-03T08:53:07.221Z,48.21
2024-03-03T08:55:35.189Z,47.45
2024-03-03T08:58:02.865Z,47.12
2024-03-03T09:00:30.340Z,47.50
2024-03-03T09:02:58.064Z,48.12
2024-03-03T09:05:25.716Z,47.95
2024-03-03T09:07:54.811Z,47.50
2024-03-03T09:10:22.345Z,47.76
2024-03-03T09:12:49.839Z,48.69
2024-03-03T09:15:17.329Z,48.44
2024-03-03T09:17:45.412Z,48.69
2024-03-03T09:20:13.373Z,48.11
2024-03-03T09:22:41.022Z,47.97
2024-03-03T09:25:09.027Z,48.12
2024-03-03T09:27:37.018Z,48.28
2024-03-03T09:30:07.420Z,47.10
2024-03-03T09:32:36.842Z,47.74
2024-03-03T09:35:05.225Z,47.51
2024-03-03T09:37:32.978Z,48.07
2024-03-03T09:40:00.483Z,48.17
2024-03-03T09:42:28.149Z,48.83
2024-03-03T09:44:59.311Z,48.36
2024-03-03T09:47:29.631Z,48.66
2024-03-03T09:49:57.902Z,48.83
2024-03-03T09:52:27.370Z,49.06
2024-03-03T09:54:54.952Z,48.50
2024-03-03T09:57:23.315Z,48.59
2024-03-03T09:59:54.051Z,48.38
2024-03-03T10:02:26.057Z,48.54
2024-03-03T10:04:56.535Z,48.42
2024-03-03T10:07:24.845Z,48.42
2024-03-03T10:10:07.236Z,48.72
2024-03-03T10:12:35.079Z,48.83
2024-03-03T10:15:05.978Z,49.98
2024-03-03T10:17:33.639Z,49.14
2024-03-03T10:20:07.305Z,49.93
2024-03-03T10:22:41.776Z,49.58
2024-03-03T10:25:16.611Z,50.05
2024-03-03T10:27:46.774Z,50.18
2024-03-03T10:30:19.220Z,51.69
2024-03-03T10:32:48.817Z,49.95
2024-03-03T10:35:17.744Z,49.96
2024-03-03T10:38:03.291Z,49.58
2024-03-03T10:40:34.772Z,49.68
2024-03-03T10:43:02.374Z,49.49
2024-03-03T10:45:30.979Z,49.03
2024-03-03T10:47:58.907Z,48.63
2024-03-03T10:50:26.898Z,48.48
2024-03-03T10:52:54.600Z,47.90
2024-03-03T10:55:25.846Z,47.75
2024-03-03T10:57:55.256Z,48.68
2024-03-03T11:00:26.430Z,48.91
2024-03-03T11:02:56.290Z,50.39
2024-03-03T11:05:24.626Z,50.63
2024-03-03T11:07:52.346Z,51.94
2024-03-03T11:10:21.046Z,52.01
2024-03-03T11:12:51.779Z,51.26
2024-03-03T11:15:21.686Z,51.75
2024-03-03T11:18:13.763Z,49.70
2024-03-03T11:20:47.002Z,49.96
2024-03-03T11:23:21.950Z,48.10
2024-03-03T11:26:18.785Z,48.64
2024-03-03T11:28:49.890Z,50.50
2024-03-03T11:31:17.640Z,53.18
2024-03-03T11:33:45.832Z,54.09
2024-03-03T11:36:13.875Z,55.25
2024-03-03T11:38:43.832Z,56.05
2024-03-03T11:41:14.513Z,58.82
2024-03-03T11:43:43.063Z,58.38
2024-03-03T11:46:11.260Z,57.80
2024-03-03T11:48:42.889Z,56.28
2024-03-03T11:51:27.355Z,55.39
2024-03-03T11:54:08.555Z,53.31
2024-03-03T11:56:47.029Z,52.09
2024-03-03T11:59:15.432Z,52.50
2024-03-03T12:01:50.621Z,52.78
2024-03-03T12:04:18.402Z,55.23
2024-03-03T12:06:47.565Z,53.76
2024-03-03T12:09:18.370Z,54.25
2024-03-03T12:11:49.454Z,53.75
2024-03-03T12:14:17.396Z,55.23
2024-03-03T12:16:44.881Z,54.90
2024-03-03T12:19:14.868Z,52.83
2024-03-03T12:21:43.092Z,52.22
2024-03-03T12:24:14.867Z,52.02
2024-03-03T12:26:42.478Z,49.39
2024-03-03T12:29:10.411Z,48.99
2024-03-03T12:31:38.005Z,49.81
2024-03-03T12:34:05.844Z,49.97
2024-03-03T12:36:33.479Z,50.36
2024-03-03T12:39:01.297Z,51.84
2024-03-03T12:41:29.228Z,52.77
2024-03-03T12:44:07.792Z,52.75
2024-03-03T12:46:41.420Z,53.83
2024-03-03T12:49:09.274Z,53.19
2024-03-03T12:51:37.357Z,55.33
2024-03-03T12:54:05.538Z,55.60
2024-03-03T12:56:32.958Z,56.97
2024-03-03T12:59:01.543Z,56.46
2024-03-03T13:01:29.633Z,56.83
2024-03-03T13:03:57.975Z,57.75
2024-03-03T13:06:32.890Z,58.46
2024-03-03T13:09:10.991Z,59.51
2024-03-03T13:11:40.929Z,61.81
2024-03-03T13:14:15.404Z,61.48
2024-03-03T13:16:45.655Z,64.78
2024-03-03T13:19:15.906Z,66.57
2024-03-03T13:21:49.860Z,74.54
2024-03-03T13:24:20.254Z,85.51
2024-03-03T13:26:47.856Z,88.73
2024-03-03T13:29:15.333Z,89.58
2024-03-03T13:31:42.914Z,86.16
2024-03-03T13:34:10.623Z,77.06
2024-03-03T13:36:38.557Z,75.45
2024-03-03T13:39:11.391Z,75.55
2024-03-03T13:41:39.676Z,69.03
2024-03-03T13:44:08.210Z,72.00
2024-03-03T13:46:35.760Z,66.92
2024-03-03T13:49:03.870Z,64.02
2024-03-03T13:51:31.685Z,65.32
2024-03-03T13:53:59.088Z,61.32
2024-03-03T13:56:27.069Z,62.07
2024-03-03T13:58:54.516Z,63.93
2024-03-03T14:01:22.147Z,63.19
2024-03-03T14:03:49.575Z,61.53
2024-03-03T14:06:17.045Z,62.07
2024-03-03T14:08:44.670Z,63.42
2024-03-03T14:11:12.363Z,64.46
2024-03-03T14:13:39.786Z,66.22
2024-03-03T14:16:08.190Z,65.45
2024-03-03T14:18:36.067Z,63.18
2024-03-03T14:21:03.716Z,62.95
2024-03-03T14:23:31.608Z,63.57
2024-03-03T14:25:59.033Z,61.87
2024-03-03T14:28:26.413Z,61.67
2024-03-03T14:30:53.884Z,60.69
2024-03-03T14:33:21.350Z,59.12
2024-03-03T14:35:48.899Z,60.12
2024-03-03T14:38:19.117Z,60.27
2024-03-03T14:40:47.249Z,57.37
2024-03-03T14:43:14.661Z,59.27
2024-03-03T14:45:42.209Z,58.39
2024-03-03T14:48:09.755Z,59.09
2024-03-03T14:50:37.210Z,59.89
2024-03-03T14:53:05.282Z,56.98
2024-03-03T14:55:32.985Z,58.38
2024-03-03T14:58:00.712Z,60.03
2024-03-03T15:00:29.324Z,59.78
2024-03-03T15:02:56.818Z,60.15
2024-03-03T15:05:24.312Z,60.50
2024-03-03T15:07:52.475Z,60.33
2024-03-03T15:10:20.766Z,60.32
2024-03-03T15:12:48.582Z,60.35
2024-03-03T15:15:16.240Z,59.88
2024-03-03T15:17:44.593Z,60.94
2024-03-03T15:20:14.937Z,62.29
2024-03-03T15:22:42.548Z,61.22
2024-03-03T15:25:10.374Z,61.66
2024-03-03T15:27:38.513Z,62.63
2024-03-03T15:30:07.004Z,61.16
2024-03-03T15:32:34.932Z,60.16
2024-03-03T15:35:02.707Z,60.55
2024-03-03T15:37:34.887Z,58.14
2024-03-03T15:40:04.480Z,57.14
2024-03-03T15:42:31.904Z,55.58
2024-03-03T15:44:59.320Z,53.43
2024-03-03T15:47:27.008Z,52.85
2024-03-03T15:49:54.554Z,54.32
2024-03-03T15:52:22.277Z,55.93
2024-03-03T15:54:49.841Z,56.82
2024-03-03T15:57:17.928Z,56.31
2024-03-03T15:59:45.314Z,55.67
2024-03-03T16:02:12.695Z,54.22
2024-03-03T16:04:41.639Z,55.31
2024-03-03T16:07:09.214Z,54.89
2024-03-03T16:09:36.793Z,55.47
2024-03-03T16:12:04.881Z,57.79
2024-03-03T16:14:33.618Z,59.23
2024-03-03T16:17:01.300Z,58.33
2024-03-03T16:19:29.017Z,58.04
2024-03-03T16:21:56.679Z,56.88
2024-03-03T16:24:24.250Z,58.74
2024-03-03T16:26:51.898Z,56.30
2024-03-03T16:29:19.424Z,55.76
2024-03-03T16:31:47.702Z,56.94
2024-03-03T16:34:15.325Z,57.21
2024-03-03T16:36:43.818Z,56.51
2024-03-03T16:39:11.389Z,56.19
2024-03-03T16:41:38.901Z,56.76
2024-03-03T16:44:06.396Z,56.88
2024-03-03T16:46:34.008Z,58.33
2024-03-03T16:49:02.456Z,58.05
2024-03-03T16:51:30.068Z,58.39
2024-03-03T16:53:57.595Z,58.74
2024-03-03T16:56:25.098Z,59.02
2024-03-03T16:58:53.099Z,60.13
2024-03-03T17:01:20.946Z,60.78
2024-03-03T17:03:48.546Z,60.96
2024-03-03T17:06:16.829Z,61.68
2024-03-03T17:08:44.419Z,60.50
2024-03-03T17:11:11.920Z,63.08
2024-03-03T17:13:39.557Z,62.21
2024-03-03T17:16:07.984Z,64.25
2024-03-03T17:18:35.863Z,64.75
2024-03-03T17:21:06.080Z,63.11
2024-03-03T17:23:33.664Z,65.50
2024-03-03T17:26:01.130Z,65.36
2024-03-03T17:28:28.681Z,65.74
2024-03-03T17:30:56.313Z,67.07
2024-03-03T17:33:23.985Z,67.42
2024-03-03T17:35:51.461Z,66.97
2024-03-03T17:38:19.771Z,67.52
2024-03-03T17:40:47.307Z,67.96
2024-03-03T17:43:14.946Z,68.85
2024-03-03T17:45:43.121Z,69.44
2024-03-03T17:48:10.785Z,71.32
2024-03-03T17:50:38.662Z,72.31
2024-03-03T17:53:06.166Z,75.54
2024-03-03T17:55:33.928Z,77.10
2024-03-03T17:58:01.652Z,77.69
2024-03-03T18:00:29.201Z,77.36
2024-03-03T18:02:57.684Z,75.00
2024-03-03T18:05:25.416Z,76.39
2024-03-03T18:07:53.304Z,75.73
2024-03-03T18:10:20.816Z,75.19
2024-03-03T18:12:48.600Z,75.48
2024-03-03T18:15:16.161Z,75.26
2024-03-03T18:17:43.776Z,75.74
2024-03-03T18:20:11.684Z,75.41
2024-03-03T18:22:39.265Z,76.16
2024-03-03T18:25:07.130Z,76.49
2024-03-03T18:27:34.732Z,76.43
2024-03-03T18:30:02.424Z,77.45
2024-03-03T18:32:31.410Z,77.97
2024-03-03T18:35:00.536Z,77.27
2024-03-03T18:37:28.660Z,75.94
2024-03-03T18:39:57.075Z,77.03
2024-03-03T18:42:26.074Z,77.75
2024-03-03T18:44:56.384Z,78.88
2024-03-03T18:47:23.956Z,79.00
2024-03-03T18:49:51.726Z,83.19
2024-03-03T18:52:19.300Z,85.07
2024-03-03T18:54:52.850Z,90.78
2024-03-03T18:57:20.563Z,93.13
2024-03-03T18:59:48.097Z,97.74
2024-03-03T19:02:15.769Z,96.94
2024-03-03T19:04:43.362Z,100.00
2024-03-03T19:07:11.946Z,100.00
2024-03-03T19:09:41.915Z,100.00
2024-03-03T19:12:10.050Z,100.00
2024-03-03T19:14:37.544Z,100.00
2024-03-03T19:17:05.302Z,100.00
2024-03-03T19:19:33.007Z,100.00
2024-03-03T19:22:01.566Z,100.00
2024-03-03T19:24:30.241Z,100.00
2024-03-03T19:26:57.852Z,100.00
2024-03-03T19:29:26.435Z,100.00
2024-03-03T19:31:54.065Z,100.00
2024-03-03T19:34:22.818Z,100.00
2024-03-03T19:36:50.464Z,100.00
2024-03-03T19:39:17.939Z,100.00
2024-03-03T19:41:45.499Z,100.00
2024-03-03T19:44:14.091Z,100.00
2024-03-03T19:46:42.869Z,100.00
2024-03-03T19:49:12.472Z,100.00
2024-03-03T19:51:40.042Z,100.00
2024-03-03T19:54:07.522Z,100.00
2024-03-03T19:56:35.193Z,100.00
2024-03-03T19:59:02.888Z,100.00
2024-03-03T20:01:30.445Z,100.00
2024-03-03T20:03:58.434Z,100.00
2024-03-03T20:06:26.052Z,100.00
2024-03-03T20:08:53.703Z,100.00
2024-03-03T20:11:21.249Z,100.00
2024-03-03T20:13:48.845Z,100.00
2024-03-03T20:16:16.561Z,100.00
2024-03-03T20:18:47.358Z,100.00
2024-03-03T20:21:14.850Z,100.00
2024-03-03T20:23:42.270Z,100.00
2024-03-03T20:26:09.970Z,100.00
2024-03-03T20:28:37.540Z,100.00
2024-03-03T20:31:05.337Z,100.00
2024-03-03T20:33:32.886Z,100.00
2024-03-03T20:36:00.566Z,100.00
2024-03-03T20:38:28.063Z,100.00
2024-03-03T20:40:55.643Z,100.00
2024-03-03T20:43:23.207Z,100.00
2024-03-03T20:45:51.274Z,100.00
2024-03-03T20:48:19.868Z,100.00
2024-03-03T20:50:47.546Z,100.00
2024-03-03T20:53:16.532Z,100.00
2024-03-03T20:55:45.119Z,100.00
2024-03-03T20:58:12.729Z,100.00
2024-03-03T21:00:40.315Z,100.00
2024-03-03T21:03:07.823Z,100.00
2024-03-03T21:05:35.394Z,100.00
2024-03-03T21:08:02.948Z,100.00
2024-03-03T21:10:30.732Z,100.00
2024-03-03T21:12:58.869Z,100.00
2024-03-03T21:15:26.365Z,100.00
2024-03-03T21:17:53.820Z,100.00
2024-03-03T21:20:21.357Z,100.00
2024-03-03T21:22:48.856Z,100.00
2024-03-03T21:25:16.672Z,100.00
2024-03-03T21:27:44.263Z,100.00
2024-03-03T21:30:12.185Z,100.00
2024-03-03T21:32:39.777Z,100.00
2024-03-03T21:35:07.591Z,100.00
2024-03-03T21:37:35.650Z,100.00
2024-03-03T21:40:04.745Z,100.00
2024-03-03T21:42:32.279Z,100.00
2024-03-03T21:44:59.881Z,100.00
2024-03-03T21:47:27.564Z,100.00
2024-03-03T21:49:55.042Z,100.00
2024-03-03T21:52:22.410Z,100.00
2024-03-03T21:54:49.952Z,100.00
2024-03-03T21:57:17.992Z,100.00
2024-03-03T21:59:45.488Z,100.00
2024-03-03T22:02:12.882Z,100.00
2024-03-03T22:04:40.595Z,100.00
2024-03-03T22:07:08.751Z,100.00
2024-03-03T22:09:36.376Z,100.00
2024-03-03T22:12:04.123Z,100.00
2024-03-03T22:14:31.651Z,100.00
2024-03-03T22:16:59.104Z,100.00
2024-03-03T22:19:27.630Z,100.00
2024-03-03T22:21:55.360Z,100.00
2024-03-03T22:24:23.090Z,100.00
2024-03-03T22:26:50.532Z,100.00
2024-03-03T22:29:18.980Z,100.00
2024-03-03T22:31:46.528Z,100.00
2024-03-03T22:34:14.264Z,100.00
2024-03-03T22:36:41.920Z,100.00
2024-03-03T22:39:09.454Z,100.00
2024-03-03T22:41:37.025Z,100.00
2024-03-03T22:44:05.049Z,100.00
2024-03-03T22:46:32.902Z,100.00
2024-03-03T22:49:00.677Z,100.00
2024-03-03T22:51:28.227Z,100.00
2024-03-03T22:53:55.809Z,100.00
2024-03-03T22:56:23.377Z,100.00
2024-03-03T22:58:53.505Z,100.00
2024-03-03T23:01:21.492Z,100.00
2024-03-03T23:03:49.073Z,100.00
2024-03-03T23:06:16.397Z,100.00
2024-03-03T23:08:43.716Z,100.00
2024-03-03T23:11:11.824Z,100.00
2024-03-03T23:13:39.350Z,100.00
2024-03-03T23:16:07.668Z,100.00
2024-03-03T23:18:35.242Z,100.00
2024-03-03T23:21:02.736Z,100.00
2024-03-03T23:23:30.337Z,100.00
2024-03-03T23:25:58.094Z,100.00
2024-03-03T23:28:26.791Z,100.00
2024-03-03T23:30:54.481Z,100.00
2024-03-03T23:33:22.024Z,100.00
2024-03-03T23:35:49.523Z,100.00
2024-03-03T23:38:17.371Z,100.00
2024-03-03T23:40:45.119Z,100.00
2024-03-03T23:43:13.192Z,100.00
2024-03-03T23:45:40.691Z,100.00
2024-03-03T23:48:08.272Z,100.00
2024-03-03T23:50:35.877Z,100.00
2024-03-03T23:53:03.626Z,100.00
2024-03-03T23:55:31.235Z,100.00
2024-03-03T23:57:58.822Z,100.00
